Time,TemperatureF,DewpointF,PressureIn,WindDirection,WindDirectionDegrees,WindSpeedMPH,WindSpeedGustMPH,Humidity,HourlyPrecipIn,Conditions,Clouds,dailyrainin,SoftwareType,DateUTC
2013-03-16 00:00:00,40.5,32.2,27.08,NW,309,5.0,15.0,72,0.00,,,-99.99,Weather View 32 v60,2013-03-16 04:00:00,
2013-03-16 00:20:00,39.7,31.4,27.07,NNW,332,5.0,15.0,72,0.00,,,-99.99,Weather View 32 v60,2013-03-16 04:20:00,
2013-03-16 00:40:00,38.9,31.6,27.06,NNW,337,9.0,15.0,75,0.00,,,-99.99,Weather View 32 v60,2013-03-16 04:40:00,
2013-03-16 01:00:00,38.7,31.8,27.06,WNW,301,6.0,12.0,76,0.00,,,-99.99,Weather View 32 v60,2013-03-16 05:00:00,
2013-03-16 01:20:00,38.0,33.6,27.06,West,269,4.0,13.0,84,0.00,,,-99.99,Weather View 32 v60,2013-03-16 05:20:00,
2013-03-16 01:40:00,37.6,32.9,27.06,WNW,293,5.0,13.0,83,0.00,,,-99.99,Weather View 32 v60,2013-03-16 05:40:00,
2013-03-16 02:00:00,37.4,33.3,27.05,NNW,330,8.0,13.0,85,0.00,,,-99.99,Weather View 32 v60,2013-03-16 06:00:00,
2013-03-16 02:20:00,37.1,33.9,27.06,WNW,300,5.0,11.0,88,0.00,,,-99.99,Weather View 32 v60,2013-03-16 06:20:00,
2013-03-16 02:40:00,36.8,34.1,27.05,NW,312,5.0,14.0,90,0.00,,,-99.99,Weather View 32 v60,2013-03-16 06:40:00,
2013-03-16 03:00:00,36.8,34.4,27.05,WNW,301,7.0,14.0,91,0.00,,,-99.99,Weather View 32 v60,2013-03-16 07:00:00,
2013-03-16 03:20:00,37.1,34.7,27.04,West,280,3.0,14.0,91,0.00,,,-99.99,Weather View 32 v60,2013-03-16 07:20:00,
2013-03-16 03:40:00,37.3,34.9,27.02,West,281,5.0,13.0,91,0.00,,,-99.99,Weather View 32 v60,2013-03-16 07:40:00,
2013-03-16 04:00:00,37.5,35.1,27.01,WNW,298,3.0,13.0,91,0.00,,,-99.99,Weather View 32 v60,2013-03-16 08:00:00,
2013-03-16 04:20:00,37.8,35.4,27.01,NNW,332,2.0,12.0,91,0.00,,,-99.99,Weather View 32 v60,2013-03-16 08:20:00,
2013-03-16 04:40:00,38.3,35.6,26.99,NNW,336,1.0,10.0,90,0.00,,,-99.99,Weather View 32 v60,2013-03-16 08:40:00,
2013-03-16 05:00:00,39.1,36.1,26.98,NW,324,3.0,8.0,89,0.00,,,-99.99,Weather View 32 v60,2013-03-16 09:00:00,
2013-03-16 05:20:00,39.7,36.1,26.98,WNW,302,4.0,9.0,87,0.00,,,-99.99,Weather View 32 v60,2013-03-16 09:20:00,
2013-03-16 05:40:00,39.9,36.3,26.99,NW,316,2.0,9.0,87,0.00,,,-99.99,Weather View 32 v60,2013-03-16 09:40:00,
2013-03-16 06:00:00,40.2,36.3,26.99,NW,304,5.0,9.0,86,0.00,,,-99.99,Weather View 32 v60,2013-03-16 10:00:00,
2013-03-16 06:20:00,39.9,36.0,26.99,West,264,5.0,8.0,86,0.00,,,-99.99,Weather View 32 v60,2013-03-16 10:20:00,
2013-03-16 06:40:00,39.2,35.9,26.99,West,261,0.0,8.0,88,0.00,,,-99.99,Weather View 32 v60,2013-03-16 10:40:00,
2013-03-16 07:00:00,39.0,36.0,26.99,West,278,5.0,8.0,89,0.00,,,-99.99,Weather View 32 v60,2013-03-16 11:00:00,
2013-03-16 07:20:00,39.3,36.6,26.99,West,281,3.0,8.0,90,0.00,,,-99.99,Weather View 32 v60,2013-03-16 11:20:00,
2013-03-16 07:40:00,39.3,36.6,26.99,WSW,242,4.0,8.0,90,0.00,,,-99.99,Weather View 32 v60,2013-03-16 11:40:00,
2013-03-16 08:00:00,39.8,36.8,26.99,SW,228,6.0,9.0,89,0.00,,,-99.99,Weather View 32 v60,2013-03-16 12:00:00,
2013-03-16 08:20:00,40.2,38.1,26.98,WSW,246,4.0,11.0,92,0.00,,,-99.99,Weather View 32 v60,2013-03-16 12:20:00,
2013-03-16 08:40:00,41.0,37.7,26.98,West,259,1.0,11.0,88,0.00,,,-99.99,Weather View 32 v60,2013-03-16 12:40:00,
2013-03-16 09:00:00,41.2,37.6,26.97,West,279,1.0,11.0,87,0.00,,,-99.99,Weather View 32 v60,2013-03-16 13:00:00,
2013-03-16 09:20:00,42.5,38.3,26.97,WSW,251,0.0,9.0,85,0.00,,,-99.99,Weather View 32 v60,2013-03-16 13:20:00,
2013-03-16 09:40:00,43.1,38.3,26.96,SW,226,3.0,9.0,83,0.00,,,-99.99,Weather View 32 v60,2013-03-16 13:40:00,
2013-03-16 10:00:00,42.7,38.5,26.96,SSW,207,2.0,9.0,85,0.00,,,-99.99,Weather View 32 v60,2013-03-16 14:00:00,
2013-03-16 10:20:00,43.6,38.8,26.94,SW,228,3.0,11.0,83,0.00,,,-99.99,Weather View 32 v60,2013-03-16 14:20:00,
2013-03-16 10:40:00,43.5,39.0,26.94,South,188,4.0,14.0,84,0.00,,,-99.99,Weather View 32 v60,2013-03-16 14:40:00,
2013-03-16 11:00:00,44.9,40.0,26.92,SW,223,8.0,14.0,83,0.00,,,-99.99,Weather View 32 v60,2013-03-16 15:00:00,
2013-03-16 11:20:00,46.1,40.9,26.92,WSW,240,12.0,17.0,82,0.00,,,-99.99,Weather View 32 v60,2013-03-16 15:20:00,
2013-03-16 11:40:00,48.2,42.3,26.90,SW,225,6.0,17.0,80,0.00,,,-99.99,Weather View 32 v60,2013-03-16 15:40:00,
2013-03-16 12:00:00,49.7,42.8,26.90,WSW,249,4.0,17.0,77,0.00,,,-99.99,Weather View 32 v60,2013-03-16 16:00:00,
2013-03-16 12:20:00,50.0,42.7,26.90,West,261,4.0,17.0,76,0.00,,,-99.99,Weather View 32 v60,2013-03-16 16:20:00,
2013-03-16 12:40:00,53.6,44.4,26.89,West,274,5.0,15.0,71,0.00,,,-99.99,Weather View 32 v60,2013-03-16 16:40:00,
2013-03-16 13:00:00,56.4,46.3,26.88,WSW,257,11.0,14.0,69,0.00,,,-99.99,Weather View 32 v60,2013-03-16 17:00:00,
2013-03-16 13:20:00,54.3,45.1,26.89,WSW,237,12.0,23.0,71,0.00,,,-99.99,Weather View 32 v60,2013-03-16 17:20:00,
2013-03-16 13:40:00,53.0,44.6,26.89,WSW,239,9.0,23.0,73,0.00,,,-99.99,Weather View 32 v60,2013-03-16 17:40:00,
2013-03-16 14:00:00,52.3,44.6,26.89,WSW,249,4.0,23.0,75,0.00,,,-99.99,Weather View 32 v60,2013-03-16 18:00:00,
2013-03-16 14:20:00,51.3,45.0,26.89,WNW,287,10.0,20.0,79,0.00,,,-99.99,Weather View 32 v60,2013-03-16 18:20:00,
2013-03-16 14:40:00,50.7,44.7,26.90,West,274,8.0,19.0,80,0.00,,,-99.99,Weather View 32 v60,2013-03-16 18:40:00,
2013-03-16 15:00:00,49.9,46.2,26.90,West,279,6.0,18.0,87,0.00,,,-99.99,Weather View 32 v60,2013-03-16 19:00:00,
2013-03-16 15:20:00,49.0,47.1,26.90,WNW,294,4.0,18.0,93,0.00,,,-99.99,Weather View 32 v60,2013-03-16 19:20:00,
2013-03-16 15:40:00,48.7,47.0,26.90,WNW,290,5.0,18.0,94,0.01,,,-99.99,Weather View 32 v60,2013-03-16 19:40:00,
2013-03-16 16:00:00,49.0,47.3,26.91,WNW,289,10.0,13.0,94,0.01,,,-99.99,Weather View 32 v60,2013-03-16 20:00:00,
2013-03-16 16:20:00,49.5,47.6,26.92,NW,316,2.0,13.0,93,0.01,,,-99.99,Weather View 32 v60,2013-03-16 20:20:00,
2013-03-16 16:40:00,50.1,46.4,26.92,West,278,3.0,20.0,87,0.00,,,-99.99,Weather View 32 v60,2013-03-16 20:40:00,
2013-03-16 16:41:00,50.1,46.4,26.92,West,278,3.0,20.0,87,0.00,,,-99.99,Weather View 32 v60,2013-03-16 20:41:00,
2013-03-16 17:00:00,49.6,45.9,26.94,NNW,342,7.0,21.0,87,0.00,,,-99.99,Weather View 32 v60,2013-03-16 21:00:00,
2013-03-16 17:20:00,48.3,44.9,26.95,North,1,6.0,21.0,88,0.00,,,-99.99,Weather View 32 v60,2013-03-16 21:20:00,
2013-03-16 17:40:00,44.4,41.6,26.98,North,356,10.0,21.0,90,0.00,,,-99.99,Weather View 32 v60,2013-03-16 21:40:00,
2013-03-16 18:00:00,42.5,40.1,26.98,NNW,333,16.0,21.0,91,0.00,,,-99.99,Weather View 32 v60,2013-03-16 22:00:00,
2013-03-16 18:20:00,41.4,39.5,27.00,North,352,8.0,21.0,93,0.00,,,-99.99,Weather View 32 v60,2013-03-16 22:20:00,
2013-03-16 18:40:00,40.9,39.0,27.00,NNW,332,8.0,20.0,93,0.00,,,-99.99,Weather View 32 v60,2013-03-16 22:40:00,
2013-03-16 18:42:00,40.9,39.0,27.00,NNW,332,8.0,20.0,93,0.00,,,-99.99,Weather View 32 v60,2013-03-16 22:42:00,
2013-03-16 19:00:00,40.7,38.0,27.02,NW,312,3.0,20.0,90,0.00,,,-99.99,Weather View 32 v60,2013-03-16 23:00:00,
2013-03-16 19:20:00,40.3,37.6,27.03,NNW,333,4.0,14.0,90,0.00,,,-99.99,Weather View 32 v60,2013-03-16 23:20:00,
2013-03-16 19:40:00,40.0,37.6,27.04,North,7,7.0,14.0,91,0.00,,,-99.99,Weather View 32 v60,2013-03-16 23:40:00,
2013-03-16 19:43:00,40.0,37.6,27.04,North,7,7.0,14.0,91,0.00,,,-99.99,Weather View 32 v60,2013-03-16 23:43:00,
2013-03-16 20:00:00,39.6,37.2,27.06,North,7,8.0,14.0,91,0.00,,,-99.99,Weather View 32 v60,2013-03-17 00:00:00,
2013-03-16 20:20:00,39.3,37.4,27.07,North,353,7.0,15.0,93,0.00,,,-99.99,Weather View 32 v60,2013-03-17 00:20:00,
2013-03-16 20:40:00,38.8,37.2,27.08,WNW,293,2.0,15.0,94,0.00,,,-99.99,Weather View 32 v60,2013-03-17 00:40:00,
2013-03-16 20:43:00,38.8,37.2,27.08,WNW,293,2.0,15.0,94,0.00,,,-99.99,Weather View 32 v60,2013-03-17 00:43:00,
2013-03-16 21:00:00,38.4,36.8,27.09,NNW,333,6.0,15.0,94,0.00,,,-99.99,Weather View 32 v60,2013-03-17 01:00:00,
2013-03-16 21:20:00,37.8,36.2,27.10,North,3,11.0,13.0,94,0.00,,,-99.99,Weather View 32 v60,2013-03-17 01:20:00,
2013-03-16 21:40:00,37.0,35.4,27.11,NNW,335,4.0,13.0,94,0.00,,,-99.99,Weather View 32 v60,2013-03-17 01:40:00,
2013-03-16 22:00:00,36.3,35.0,27.12,NNE,13,9.0,16.0,95,0.00,,,-99.99,Weather View 32 v60,2013-03-17 02:00:00,
2013-03-16 22:20:00,35.8,34.5,27.13,NNW,327,7.0,16.0,95,0.00,,,-99.99,Weather View 32 v60,2013-03-17 02:20:00,
2013-03-16 22:40:00,35.4,34.1,27.13,North,0,1.0,16.0,95,0.00,,,-99.99,Weather View 32 v60,2013-03-17 02:40:00,
2013-03-16 22:44:00,35.4,34.1,27.13,North,0,1.0,16.0,95,0.00,,,-99.99,Weather View 32 v60,2013-03-17 02:44:00,
2013-03-16 23:00:00,34.9,33.6,27.13,NNW,337,6.0,16.0,95,0.00,,,-99.99,Weather View 32 v60,2013-03-17 03:00:00,
2013-03-16 23:20:00,34.4,33.1,27.14,NNW,336,3.0,13.0,95,0.00,,,-99.99,Weather View 32 v60,2013-03-17 03:20:00,
2013-03-16 23:40:00,33.6,32.3,27.14,NNW,330,3.0,12.0,95,0.00,,,-99.99,Weather View 32 v60,2013-03-17 03:40:00,
2013-03-16 23:45:00,33.6,32.3,27.14,NNW,330,3.0,12.0,95,0.00,,,-99.99,Weather View 32 v60,2013-03-17 03:45:00,